sensor_id;sensor_type;location;lat;lon;timestamp;P1;durP1;ratioP1;P2;durP2;ratioP2
10537;SDS011;5317;49.048;8.468;2023-11-21T00:01:25;5.73;;;2.07;;
10537;SDS011;5317;49.048;8.468;2023-11-21T00:03:51;3.43;;;1.70;;
10537;SDS011;5317;49.048;8.468;2023-11-21T00:06:19;2.63;;;1.50;;
10537;SDS011;5317;49.048;8.468;2023-11-21T00:08:47;4.57;;;1.70;;
10537;SDS011;5317;49.048;8.468;2023-11-21T00:11:15;3.77;;;1.70;;
10537;SDS011;5317;49.048;8.468;2023-11-21T00:13:41;2.40;;;1.67;;
10537;SDS011;5317;49.048;8.468;2023-11-21T00:16:08;4.47;;;1.70;;
10537;SDS011;5317;49.048;8.468;2023-11-21T00:18:35;4.37;;;1.53;;
10537;SDS011;5317;49.048;8.468;2023-11-21T00:21:02;3.57;;;1.70;;
10537;SDS011;5317;49.048;8.468;2023-11-21T00:23:29;4.13;;;2.17;;
10537;SDS011;5317;49.048;8.468;2023-11-21T00:25:57;3.60;;;1.60;;
10537;SDS011;5317;49.048;8.468;2023-11-21T00:28:26;4.97;;;1.83;;
10537;SDS011;5317;49.048;8.468;2023-11-21T00:30:53;3.40;;;1.60;;
10537;SDS011;5317;49.048;8.468;2023-11-21T00:33:20;5.27;;;1.97;;
10537;SDS011;5317;49.048;8.468;2023-11-21T00:35:47;3.43;;;1.83;;
10537;SDS011;5317;49.048;8.468;2023-11-21T00:38:14;5.93;;;2.10;;
10537;SDS011;5317;49.048;8.468;2023-11-21T00:40:40;7.67;;;2.07;;
10537;SDS011;5317;49.048;8.468;2023-11-21T00:43:09;5.17;;;1.63;;
10537;SDS011;5317;49.048;8.468;2023-11-21T00:45:36;6.33;;;2.10;;
10537;SDS011;5317;49.048;8.468;2023-11-21T00:48:05;3.43;;;1.40;;
10537;SDS011;5317;49.048;8.468;2023-11-21T00:50:33;3.93;;;1.40;;
10537;SDS011;5317;49.048;8.468;2023-11-21T00:53:00;5.00;;;1.73;;
10537;SDS011;5317;49.048;8.468;2023-11-21T00:55:27;2.97;;;1.60;;
10537;SDS011;5317;49.048;8.468;2023-11-21T00:57:55;3.23;;;1.53;;
10537;SDS011;5317;49.048;8.468;2023-11-21T01:00:24;6.23;;;1.80;;
10537;SDS011;5317;49.048;8.468;2023-11-21T01:02:51;2.23;;;1.57;;
10537;SDS011;5317;49.048;8.468;2023-11-21T01:05:18;2.83;;;1.50;;
10537;SDS011;5317;49.048;8.468;2023-11-21T01:07:45;3.67;;;1.70;;
10537;SDS011;5317;49.048;8.468;2023-11-21T01:10:12;4.50;;;1.87;;
10537;SDS011;5317;49.048;8.468;2023-11-21T01:12:39;2.63;;;1.80;;
10537;SDS011;5317;49.048;8.468;2023-11-21T01:15:07;4.00;;;2.00;;
10537;SDS011;5317;49.048;8.468;2023-11-21T01:17:38;3.07;;;1.57;;
10537;SDS011;5317;49.048;8.468;2023-11-21T01:20:06;4.67;;;1.70;;
10537;SDS011;5317;49.048;8.468;2023-11-21T01:22:37;2.80;;;2.10;;
10537;SDS011;5317;49.048;8.468;2023-11-21T01:25:04;4.97;;;1.57;;
10537;SDS011;5317;49.048;8.468;2023-11-21T01:27:32;3.97;;;1.67;;
10537;SDS011;5317;49.048;8.468;2023-11-21T01:29:59;3.97;;;1.70;;
10537;SDS011;5317;49.048;8.468;2023-11-21T01:32:26;4.33;;;1.60;;
10537;SDS011;5317;49.048;8.468;2023-11-21T01:34:55;5.03;;;1.70;;
10537;SDS011;5317;49.048;8.468;2023-11-21T01:37:21;5.03;;;1.67;;
10537;SDS011;5317;49.048;8.468;2023-11-21T01:39:49;4.97;;;2.07;;
10537;SDS011;5317;49.048;8.468;2023-11-21T01:42:16;4.73;;;1.43;;
10537;SDS011;5317;49.048;8.468;2023-11-21T01:44:43;4.43;;;1.50;;
10537;SDS011;5317;49.048;8.468;2023-11-21T01:47:11;3.27;;;1.70;;
10537;SDS011;5317;49.048;8.468;2023-11-21T01:49:39;5.17;;;2.53;;
10537;SDS011;5317;49.048;8.468;2023-11-21T01:52:09;5.83;;;2.00;;
10537;SDS011;5317;49.048;8.468;2023-11-21T01:54:36;5.43;;;2.20;;
10537;SDS011;5317;49.048;8.468;2023-11-21T01:57:04;6.57;;;1.60;;
10537;SDS011;5317;49.048;8.468;2023-11-21T01:59:33;5.17;;;1.80;;
10537;SDS011;5317;49.048;8.468;2023-11-21T02:02:02;4.57;;;1.90;;
10537;SDS011;5317;49.048;8.468;2023-11-21T02:04:29;4.30;;;2.13;;
10537;SDS011;5317;49.048;8.468;2023-11-21T02:06:56;3.70;;;2.03;;
10537;SDS011;5317;49.048;8.468;2023-11-21T02:09:25;4.63;;;1.70;;
10537;SDS011;5317;49.048;8.468;2023-11-21T02:11:54;3.07;;;1.70;;
10537;SDS011;5317;49.048;8.468;2023-11-21T02:14:21;3.87;;;2.20;;
10537;SDS011;5317;49.048;8.468;2023-11-21T02:16:48;3.93;;;1.63;;
10537;SDS011;5317;49.048;8.468;2023-11-21T02:19:17;3.43;;;1.80;;
10537;SDS011;5317;49.048;8.468;2023-11-21T02:21:47;5.63;;;2.03;;
10537;SDS011;5317;49.048;8.468;2023-11-21T02:24:17;4.77;;;2.07;;
10537;SDS011;5317;49.048;8.468;2023-11-21T02:26:45;6.10;;;1.93;;
10537;SDS011;5317;49.048;8.468;2023-11-21T02:29:12;3.63;;;1.50;;
10537;SDS011;5317;49.048;8.468;2023-11-21T02:31:41;4.70;;;1.63;;
10537;SDS011;5317;49.048;8.468;2023-11-21T02:34:13;5.03;;;1.80;;
10537;SDS011;5317;49.048;8.468;2023-11-21T02:36:40;4.17;;;1.50;;
10537;SDS011;5317;49.048;8.468;2023-11-21T02:39:07;3.53;;;1.47;;
10537;SDS011;5317;49.048;8.468;2023-11-21T02:41:36;3.97;;;1.60;;
10537;SDS011;5317;49.048;8.468;2023-11-21T02:44:04;3.80;;;1.40;;
10537;SDS011;5317;49.048;8.468;2023-11-21T02:46:32;5.33;;;2.20;;
10537;SDS011;5317;49.048;8.468;2023-11-21T02:48:59;4.93;;;1.53;;
10537;SDS011;5317;49.048;8.468;2023-11-21T02:51:26;4.73;;;1.80;;
10537;SDS011;5317;49.048;8.468;2023-11-21T02:53:52;4.07;;;1.30;;
10537;SDS011;5317;49.048;8.468;2023-11-21T02:56:19;5.13;;;1.73;;
10537;SDS011;5317;49.048;8.468;2023-11-21T02:58:48;4.03;;;1.40;;
10537;SDS011;5317;49.048;8.468;2023-11-21T03:01:14;4.03;;;1.70;;
10537;SDS011;5317;49.048;8.468;2023-11-21T03:03:42;5.27;;;1.80;;
10537;SDS011;5317;49.048;8.468;2023-11-21T03:06:09;6.37;;;1.80;;
10537;SDS011;5317;49.048;8.468;2023-11-21T03:08:35;3.97;;;1.70;;
10537;SDS011;5317;49.048;8.468;2023-11-21T03:11:03;3.20;;;1.50;;
10537;SDS011;5317;49.048;8.468;2023-11-21T03:13:29;2.00;;;1.47;;
10537;SDS011;5317;49.048;8.468;2023-11-21T03:15:58;3.03;;;1.60;;
10537;SDS011;5317;49.048;8.468;2023-11-21T03:18:25;3.30;;;1.30;;
10537;SDS011;5317;49.048;8.468;2023-11-21T03:20:54;2.80;;;1.77;;
10537;SDS011;5317;49.048;8.468;2023-11-21T03:23:21;3.03;;;1.40;;
10537;SDS011;5317;49.048;8.468;2023-11-21T03:25:47;2.87;;;1.53;;
10537;SDS011;5317;49.048;8.468;2023-11-21T03:28:14;3.30;;;1.80;;
10537;SDS011;5317;49.048;8.468;2023-11-21T03:30:41;4.70;;;1.77;;
10537;SDS011;5317;49.048;8.468;2023-11-21T03:33:09;3.93;;;1.70;;
10537;SDS011;5317;49.048;8.468;2023-11-21T03:35:37;3.63;;;1.70;;
10537;SDS011;5317;49.048;8.468;2023-11-21T03:38:07;3.63;;;1.80;;
10537;SDS011;5317;49.048;8.468;2023-11-21T03:40:33;3.60;;;1.80;;
10537;SDS011;5317;49.048;8.468;2023-11-21T03:43:00;5.67;;;1.83;;
10537;SDS011;5317;49.048;8.468;2023-11-21T03:45:27;3.13;;;1.67;;
10537;SDS011;5317;49.048;8.468;2023-11-21T03:47:54;5.60;;;1.80;;
10537;SDS011;5317;49.048;8.468;2023-11-21T03:50:22;3.23;;;1.60;;
10537;SDS011;5317;49.048;8.468;2023-11-21T03:52:48;2.20;;;1.40;;
10537;SDS011;5317;49.048;8.468;2023-11-21T03:55:15;4.27;;;1.80;;
10537;SDS011;5317;49.048;8.468;2023-11-21T03:57:42;2.60;;;1.80;;
10537;SDS011;5317;49.048;8.468;2023-11-21T04:00:09;2.23;;;1.57;;
10537;SDS011;5317;49.048;8.468;2023-11-21T04:02:37;4.37;;;1.70;;
10537;SDS011;5317;49.048;8.468;2023-11-21T04:05:04;3.17;;;1.53;;
10537;SDS011;5317;49.048;8.468;2023-11-21T04:07:33;3.00;;;1.83;;
10537;SDS011;5317;49.048;8.468;2023-11-21T04:10:00;2.63;;;1.50;;
10537;SDS011;5317;49.048;8.468;2023-11-21T04:12:27;2.33;;;1.50;;
10537;SDS011;5317;49.048;8.468;2023-11-21T04:14:54;2.70;;;1.30;;
10537;SDS011;5317;49.048;8.468;2023-11-21T04:17:21;4.57;;;1.73;;
10537;SDS011;5317;49.048;8.468;2023-11-21T04:19:47;3.47;;;1.50;;
10537;SDS011;5317;49.048;8.468;2023-11-21T04:22:14;3.47;;;1.50;;
10537;SDS011;5317;49.048;8.468;2023-11-21T04:24:42;2.77;;;1.63;;
10537;SDS011;5317;49.048;8.468;2023-11-21T04:27:08;3.53;;;1.80;;
10537;SDS011;5317;49.048;8.468;2023-11-21T04:29:35;5.00;;;2.60;;
10537;SDS011;5317;49.048;8.468;2023-11-21T04:32:02;5.63;;;4.53;;
10537;SDS011;5317;49.048;8.468;2023-11-21T04:34:29;6.97;;;2.53;;
10537;SDS011;5317;49.048;8.468;2023-11-21T04:36:56;2.47;;;1.80;;
10537;SDS011;5317;49.048;8.468;2023-11-21T04:39:23;2.40;;;1.70;;
10537;SDS011;5317;49.048;8.468;2023-11-21T04:41:52;4.63;;;1.83;;
10537;SDS011;5317;49.048;8.468;2023-11-21T04:44:18;3.10;;;1.83;;
10537;SDS011;5317;49.048;8.468;2023-11-21T04:46:45;3.87;;;1.80;;
10537;SDS011;5317;49.048;8.468;2023-11-21T04:49:12;2.77;;;1.40;;
10537;SDS011;5317;49.048;8.468;2023-11-21T04:51:40;3.27;;;1.90;;
10537;SDS011;5317;49.048;8.468;2023-11-21T04:54:07;4.77;;;1.90;;
10537;SDS011;5317;49.048;8.468;2023-11-21T04:56:34;4.10;;;1.93;;
10537;SDS011;5317;49.048;8.468;2023-11-21T04:59:02;2.83;;;1.60;;
10537;SDS011;5317;49.048;8.468;2023-11-21T05:01:29;5.90;;;2.20;;
10537;SDS011;5317;49.048;8.468;2023-11-21T05:03:57;7.07;;;2.00;;
10537;SDS011;5317;49.048;8.468;2023-11-21T05:06:24;3.17;;;1.93;;
10537;SDS011;5317;49.048;8.468;2023-11-21T05:08:50;3.53;;;1.73;;
10537;SDS011;5317;49.048;8.468;2023-11-21T05:11:24;4.33;;;1.80;;
10537;SDS011;5317;49.048;8.468;2023-11-21T05:13:51;4.47;;;1.90;;
10537;SDS011;5317;49.048;8.468;2023-11-21T05:16:19;2.00;;;1.80;;
10537;SDS011;5317;49.048;8.468;2023-11-21T05:18:47;3.63;;;2.37;;
10537;SDS011;5317;49.048;8.468;2023-11-21T05:21:15;3.83;;;2.10;;
10537;SDS011;5317;49.048;8.468;2023-11-21T05:23:42;2.30;;;1.83;;
10537;SDS011;5317;49.048;8.468;2023-11-21T05:26:09;4.23;;;2.10;;
10537;SDS011;5317;49.048;8.468;2023-11-21T05:28:36;4.07;;;1.90;;
10537;SDS011;5317;49.048;8.468;2023-11-21T05:31:02;5.23;;;1.90;;
10537;SDS011;5317;49.048;8.468;2023-11-21T05:33:31;4.57;;;2.00;;
10537;SDS011;5317;49.048;8.468;2023-11-21T05:35:59;4.77;;;2.30;;
10537;SDS011;5317;49.048;8.468;2023-11-21T05:38:26;5.63;;;2.27;;
10537;SDS011;5317;49.048;8.468;2023-11-21T05:40:52;4.00;;;2.00;;
10537;SDS011;5317;49.048;8.468;2023-11-21T05:43:19;2.33;;;1.80;;
10537;SDS011;5317;49.048;8.468;2023-11-21T05:45:46;2.80;;;2.03;;
10537;SDS011;5317;49.048;8.468;2023-11-21T05:48:13;3.50;;;2.10;;
10537;SDS011;5317;49.048;8.468;2023-11-21T05:50:42;5.30;;;2.53;;
10537;SDS011;5317;49.048;8.468;2023-11-21T05:53:10;3.33;;;2.13;;
10537;SDS011;5317;49.048;8.468;2023-11-21T05:55:37;4.70;;;2.40;;
10537;SDS011;5317;49.048;8.468;2023-11-21T05:58:04;3.93;;;2.50;;
10537;SDS011;5317;49.048;8.468;2023-11-21T06:00:32;3.13;;;2.50;;
10537;SDS011;5317;49.048;8.468;2023-11-21T06:02:59;3.87;;;2.60;;
10537;SDS011;5317;49.048;8.468;2023-11-21T06:05:29;3.60;;;2.00;;
10537;SDS011;5317;49.048;8.468;2023-11-21T06:07:58;2.33;;;2.13;;
10537;SDS011;5317;49.048;8.468;2023-11-21T06:10:26;3.07;;;2.47;;
10537;SDS011;5317;49.048;8.468;2023-11-21T06:12:53;2.57;;;2.30;;
10537;SDS011;5317;49.048;8.468;2023-11-21T06:15:20;3.73;;;2.50;;
10537;SDS011;5317;49.048;8.468;2023-11-21T06:17:48;2.70;;;2.27;;
10537;SDS011;5317;49.048;8.468;2023-11-21T06:20:17;4.10;;;2.40;;
10537;SDS011;5317;49.048;8.468;2023-11-21T06:22:48;3.17;;;2.50;;
10537;SDS011;5317;49.048;8.468;2023-11-21T06:25:16;2.73;;;2.30;;
10537;SDS011;5317;49.048;8.468;2023-11-21T06:27:44;2.67;;;2.30;;
10537;SDS011;5317;49.048;8.468;2023-11-21T06:30:13;4.73;;;2.30;;
10537;SDS011;5317;49.048;8.468;2023-11-21T06:32:41;3.03;;;2.40;;
10537;SDS011;5317;49.048;8.468;2023-11-21T06:35:10;4.47;;;2.47;;
10537;SDS011;5317;49.048;8.468;2023-11-21T06:37:38;2.60;;;2.40;;
10537;SDS011;5317;49.048;8.468;2023-11-21T06:40:05;2.80;;;2.50;;
10537;SDS011;5317;49.048;8.468;2023-11-21T06:42:36;3.57;;;2.83;;
10537;SDS011;5317;49.048;8.468;2023-11-21T06:45:04;3.90;;;2.80;;
10537;SDS011;5317;49.048;8.468;2023-11-21T06:47:31;3.00;;;2.50;;
10537;SDS011;5317;49.048;8.468;2023-11-21T06:49:58;3.43;;;2.70;;
10537;SDS011;5317;49.048;8.468;2023-11-21T06:52:26;2.97;;;2.50;;
10537;SDS011;5317;49.048;8.468;2023-11-21T06:54:54;4.57;;;2.60;;
10537;SDS011;5317;49.048;8.468;2023-11-21T06:57:22;3.77;;;2.60;;
10537;SDS011;5317;49.048;8.468;2023-11-21T06:59:51;3.57;;;2.93;;
10537;SDS011;5317;49.048;8.468;2023-11-21T07:02:18;4.97;;;4.57;;
10537;SDS011;5317;49.048;8.468;2023-11-21T07:04:44;4.40;;;3.90;;
10537;SDS011;5317;49.048;8.468;2023-11-21T07:07:12;5.00;;;4.47;;
10537;SDS011;5317;49.048;8.468;2023-11-21T07:09:39;4.87;;;4.30;;
10537;SDS011;5317;49.048;8.468;2023-11-21T07:12:06;6.53;;;5.50;;
10537;SDS011;5317;49.048;8.468;2023-11-21T07:14:33;4.33;;;3.77;;
10537;SDS011;5317;49.048;8.468;2023-11-21T07:17:01;5.27;;;4.77;;
10537;SDS011;5317;49.048;8.468;2023-11-21T07:19:28;5.37;;;4.90;;
10537;SDS011;5317;49.048;8.468;2023-11-21T07:21:56;7.37;;;4.10;;
10537;SDS011;5317;49.048;8.468;2023-11-21T07:24:23;4.97;;;3.13;;
10537;SDS011;5317;49.048;8.468;2023-11-21T07:26:51;4.10;;;3.70;;
10537;SDS011;5317;49.048;8.468;2023-11-21T07:29:22;4.27;;;3.87;;
10537;SDS011;5317;49.048;8.468;2023-11-21T07:31:50;5.23;;;3.47;;
10537;SDS011;5317;49.048;8.468;2023-11-21T07:34:19;3.77;;;3.20;;
10537;SDS011;5317;49.048;8.468;2023-11-21T07:36:46;4.27;;;3.53;;
10537;SDS011;5317;49.048;8.468;2023-11-21T07:39:15;4.67;;;3.53;;
10537;SDS011;5317;49.048;8.468;2023-11-21T07:41:42;4.33;;;3.93;;
10537;SDS011;5317;49.048;8.468;2023-11-21T07:44:13;9.13;;;4.00;;
10537;SDS011;5317;49.048;8.468;2023-11-21T07:46:41;4.20;;;3.50;;
10537;SDS011;5317;49.048;8.468;2023-11-21T07:49:09;12.10;;;9.13;;
10537;SDS011;5317;49.048;8.468;2023-11-21T07:51:37;5.60;;;5.00;;
10537;SDS011;5317;49.048;8.468;2023-11-21T07:54:04;3.60;;;3.30;;
10537;SDS011;5317;49.048;8.468;2023-11-21T07:56:31;3.83;;;3.40;;
10537;SDS011;5317;49.048;8.468;2023-11-21T07:58:58;4.13;;;3.00;;
10537;SDS011;5317;49.048;8.468;2023-11-21T08:01:25;3.33;;;2.73;;
10537;SDS011;5317;49.048;8.468;2023-11-21T08:03:53;4.00;;;2.73;;
10537;SDS011;5317;49.048;8.468;2023-11-21T08:06:22;3.23;;;2.90;;
10537;SDS011;5317;49.048;8.468;2023-11-21T08:08:52;3.40;;;2.97;;
10537;SDS011;5317;49.048;8.468;2023-11-21T08:11:19;3.03;;;2.70;;
10537;SDS011;5317;49.048;8.468;2023-11-21T08:13:46;3.10;;;2.60;;
10537;SDS011;5317;49.048;8.468;2023-11-21T08:16:13;4.03;;;3.03;;
10537;SDS011;5317;49.048;8.468;2023-11-21T08:18:41;3.47;;;2.80;;
10537;SDS011;5317;49.048;8.468;2023-11-21T08:21:08;3.50;;;2.60;;
10537;SDS011;5317;49.048;8.468;2023-11-21T08:23:37;3.40;;;3.10;;
10537;SDS011;5317;49.048;8.468;2023-11-21T08:26:05;3.77;;;3.30;;
10537;SDS011;5317;49.048;8.468;2023-11-21T08:28:33;4.37;;;3.17;;
10537;SDS011;5317;49.048;8.468;2023-11-21T08:31:00;5.13;;;3.40;;
10537;SDS011;5317;49.048;8.468;2023-11-21T08:33:27;3.83;;;3.37;;
10537;SDS011;5317;49.048;8.468;2023-11-21T08:35:54;5.03;;;3.40;;
10537;SDS011;5317;49.048;8.468;2023-11-21T08:38:21;4.33;;;3.93;;
10537;SDS011;5317;49.048;8.468;2023-11-21T08:40:48;3.80;;;3.20;;
10537;SDS011;5317;49.048;8.468;2023-11-21T08:43:16;4.83;;;3.70;;
10537;SDS011;5317;49.048;8.468;2023-11-21T08:45:44;5.57;;;4.03;;
10537;SDS011;5317;49.048;8.468;2023-11-21T08:48:12;4.87;;;4.40;;
10537;SDS011;5317;49.048;8.468;2023-11-21T08:50:38;5.77;;;4.37;;
10537;SDS011;5317;49.048;8.468;2023-11-21T08:53:07;4.87;;;4.33;;
10537;SDS011;5317;49.048;8.468;2023-11-21T08:55:33;6.00;;;4.40;;
10537;SDS011;5317;49.048;8.468;2023-11-21T08:58:02;5.07;;;4.57;;
10537;SDS011;5317;49.048;8.468;2023-11-21T09:00:31;5.50;;;4.83;;
10537;SDS011;5317;49.048;8.468;2023-11-21T09:03:00;7.03;;;5.33;;
10537;SDS011;5317;49.048;8.468;2023-11-21T09:05:27;8.87;;;7.37;;
10537;SDS011;5317;49.048;8.468;2023-11-21T09:07:55;6.30;;;5.53;;
10537;SDS011;5317;49.048;8.468;2023-11-21T09:10:22;7.50;;;6.43;;
10537;SDS011;5317;49.048;8.468;2023-11-21T09:12:50;9.23;;;6.57;;
10537;SDS011;5317;49.048;8.468;2023-11-21T09:15:17;7.33;;;6.63;;
10537;SDS011;5317;49.048;8.468;2023-11-21T09:17:46;7.87;;;6.67;;
10537;SDS011;5317;49.048;8.468;2023-11-21T09:20:13;8.17;;;7.37;;
10537;SDS011;5317;49.048;8.468;2023-11-21T09:22:41;8.43;;;7.53;;
10537;SDS011;5317;49.048;8.468;2023-11-21T09:25:10;8.87;;;7.97;;
10537;SDS011;5317;49.048;8.468;2023-11-21T09:27:37;9.17;;;8.03;;
10537;SDS011;5317;49.048;8.468;2023-11-21T09:30:06;8.80;;;7.90;;
10537;SDS011;5317;49.048;8.468;2023-11-21T09:32:35;8.40;;;7.60;;
10537;SDS011;5317;49.048;8.468;2023-11-21T09:35:04;8.60;;;7.73;;
10537;SDS011;5317;49.048;8.468;2023-11-21T09:37:33;10.07;;;8.57;;
10537;SDS011;5317;49.048;8.468;2023-11-21T09:40:01;12.00;;;8.10;;
10537;SDS011;5317;49.048;8.468;2023-11-21T09:42:30;8.43;;;7.47;;
10537;SDS011;5317;49.048;8.468;2023-11-21T09:45:03;9.50;;;8.00;;
10537;SDS011;5317;49.048;8.468;2023-11-21T09:47:35;8.40;;;7.50;;
10537;SDS011;5317;49.048;8.468;2023-11-21T09:50:06;9.17;;;6.87;;
10537;SDS011;5317;49.048;8.468;2023-11-21T09:52:46;9.77;;;8.10;;
10537;SDS011;5317;49.048;8.468;2023-11-21T09:55:20;7.93;;;7.13;;
10537;SDS011;5317;49.048;8.468;2023-11-21T09:57:48;8.70;;;7.80;;
10537;SDS011;5317;49.048;8.468;2023-11-21T10:00:15;8.33;;;7.43;;
10537;SDS011;5317;49.048;8.468;2023-11-21T10:02:45;8.13;;;7.23;;
10537;SDS011;5317;49.048;8.468;2023-11-21T10:05:16;9.43;;;7.63;;
10537;SDS011;5317;49.048;8.468;2023-11-21T10:07:44;7.43;;;6.63;;
10537;SDS011;5317;49.048;8.468;2023-11-21T10:10:12;9.03;;;7.67;;
10537;SDS011;5317;49.048;8.468;2023-11-21T10:12:44;8.13;;;7.33;;
10537;SDS011;5317;49.048;8.468;2023-11-21T10:15:16;9.67;;;7.60;;
10537;SDS011;5317;49.048;8.468;2023-11-21T10:17:43;8.97;;;7.60;;
10537;SDS011;5317;49.048;8.468;2023-11-21T10:20:12;8.43;;;6.83;;
10537;SDS011;5317;49.048;8.468;2023-11-21T10:22:42;7.77;;;6.80;;
10537;SDS011;5317;49.048;8.468;2023-11-21T10:25:09;7.63;;;6.90;;
10537;SDS011;5317;49.048;8.468;2023-11-21T10:27:39;9.33;;;6.30;;
10537;SDS011;5317;49.048;8.468;2023-11-21T10:30:08;8.83;;;6.67;;
10537;SDS011;5317;49.048;8.468;2023-11-21T10:32:37;6.10;;;5.50;;
10537;SDS011;5317;49.048;8.468;2023-11-21T10:35:05;6.57;;;5.90;;
10537;SDS011;5317;49.048;8.468;2023-11-21T10:37:35;6.30;;;5.70;;
10537;SDS011;5317;49.048;8.468;2023-11-21T10:40:06;5.90;;;5.30;;
10537;SDS011;5317;49.048;8.468;2023-11-21T10:42:36;5.47;;;4.93;;
10537;SDS011;5317;49.048;8.468;2023-11-21T10:45:03;5.90;;;4.60;;
10537;SDS011;5317;49.048;8.468;2023-11-21T10:47:37;5.27;;;4.40;;
10537;SDS011;5317;49.048;8.468;2023-11-21T10:50:05;5.10;;;4.57;;
10537;SDS011;5317;49.048;8.468;2023-11-21T10:52:35;5.70;;;5.03;;
10537;SDS011;5317;49.048;8.468;2023-11-21T10:55:12;5.03;;;4.53;;
10537;SDS011;5317;49.048;8.468;2023-11-21T10:57:42;3.93;;;3.63;;
10537;SDS011;5317;49.048;8.468;2023-11-21T11:00:15;5.20;;;3.87;;
10537;SDS011;5317;49.048;8.468;2023-11-21T11:02:45;5.07;;;4.00;;
10537;SDS011;5317;49.048;8.468;2023-11-21T11:05:15;4.40;;;3.50;;
10537;SDS011;5317;49.048;8.468;2023-11-21T11:07:47;5.07;;;3.80;;
10537;SDS011;5317;49.048;8.468;2023-11-21T11:10:18;4.47;;;4.07;;
10537;SDS011;5317;49.048;8.468;2023-11-21T11:12:47;4.20;;;3.80;;
10537;SDS011;5317;49.048;8.468;2023-11-21T11:15:17;4.43;;;4.03;;
10537;SDS011;5317;49.048;8.468;2023-11-21T11:17:45;4.17;;;3.77;;
10537;SDS011;5317;49.048;8.468;2023-11-21T11:20:13;4.43;;;3.97;;
10537;SDS011;5317;49.048;8.468;2023-11-21T11:22:44;3.57;;;3.27;;
10537;SDS011;5317;49.048;8.468;2023-11-21T11:25:23;3.97;;;3.57;;
10537;SDS011;5317;49.048;8.468;2023-11-21T11:27:57;3.53;;;3.23;;
10537;SDS011;5317;49.048;8.468;2023-11-21T11:30:33;3.73;;;3.40;;
10537;SDS011;5317;49.048;8.468;2023-11-21T11:33:13;3.77;;;3.37;;
10537;SDS011;5317;49.048;8.468;2023-11-21T11:35:56;3.43;;;3.13;;
10537;SDS011;5317;49.048;8.468;2023-11-21T11:38:30;3.07;;;2.83;;
10537;SDS011;5317;49.048;8.468;2023-11-21T11:41:02;4.30;;;3.00;;
10537;SDS011;5317;49.048;8.468;2023-11-21T11:43:30;3.80;;;3.40;;
10537;SDS011;5317;49.048;8.468;2023-11-21T11:46:05;3.03;;;2.73;;
10537;SDS011;5317;49.048;8.468;2023-11-21T11:48:34;3.80;;;2.87;;
10537;SDS011;5317;49.048;8.468;2023-11-21T11:51:05;4.37;;;3.00;;
10537;SDS011;5317;49.048;8.468;2023-11-21T11:53:37;3.57;;;3.27;;
10537;SDS011;5317;49.048;8.468;2023-11-21T11:56:27;3.50;;;3.20;;
10537;SDS011;5317;49.048;8.468;2023-11-21T11:58:56;4.20;;;3.33;;
10537;SDS011;5317;49.048;8.468;2023-11-21T12:01:24;4.20;;;3.80;;
10537;SDS011;5317;49.048;8.468;2023-11-21T12:06:55;4.70;;;4.20;;
10537;SDS011;5317;49.048;8.468;2023-11-21T12:09:25;4.03;;;3.67;;
10537;SDS011;5317;49.048;8.468;2023-11-21T12:11:54;4.07;;;3.67;;
10537;SDS011;5317;49.048;8.468;2023-11-21T12:14:26;4.77;;;4.37;;
10537;SDS011;5317;49.048;8.468;2023-11-21T12:16:54;5.50;;;4.37;;
10537;SDS011;5317;49.048;8.468;2023-11-21T12:19:24;4.43;;;4.10;;
10537;SDS011;5317;49.048;8.468;2023-11-21T12:21:52;4.47;;;4.03;;
10537;SDS011;5317;49.048;8.468;2023-11-21T12:24:21;5.90;;;4.63;;
10537;SDS011;5317;49.048;8.468;2023-11-21T12:26:49;5.97;;;4.60;;
10537;SDS011;5317;49.048;8.468;2023-11-21T12:29:19;6.80;;;5.10;;
10537;SDS011;5317;49.048;8.468;2023-11-21T12:31:45;6.00;;;5.10;;
10537;SDS011;5317;49.048;8.468;2023-11-21T12:34:15;5.40;;;4.90;;
10537;SDS011;5317;49.048;8.468;2023-11-21T12:36:43;5.53;;;5.00;;
10537;SDS011;5317;49.048;8.468;2023-11-21T12:39:10;5.17;;;4.73;;
10537;SDS011;5317;49.048;8.468;2023-11-21T12:41:37;5.57;;;5.03;;
10537;SDS011;5317;49.048;8.468;2023-11-21T12:44:04;7.43;;;6.10;;
10537;SDS011;5317;49.048;8.468;2023-11-21T12:46:41;5.47;;;4.80;;
10537;SDS011;5317;49.048;8.468;2023-11-21T12:49:10;6.73;;;5.20;;
10537;SDS011;5317;49.048;8.468;2023-11-21T12:51:42;8.10;;;4.77;;
10537;SDS011;5317;49.048;8.468;2023-11-21T12:54:09;5.23;;;4.53;;
10537;SDS011;5317;49.048;8.468;2023-11-21T12:56:38;5.50;;;4.73;;
10537;SDS011;5317;49.048;8.468;2023-11-21T12:59:05;4.67;;;4.27;;
10537;SDS011;5317;49.048;8.468;2023-11-21T13:01:32;4.80;;;4.20;;
10537;SDS011;5317;49.048;8.468;2023-11-21T13:04:03;4.73;;;4.33;;
10537;SDS011;5317;49.048;8.468;2023-11-21T13:06:36;4.47;;;4.07;;
10537;SDS011;5317;49.048;8.468;2023-11-21T13:09:06;4.33;;;3.77;;
10537;SDS011;5317;49.048;8.468;2023-11-21T13:11:35;4.50;;;4.07;;
10537;SDS011;5317;49.048;8.468;2023-11-21T13:14:07;5.30;;;4.30;;
10537;SDS011;5317;49.048;8.468;2023-11-21T13:16:36;4.40;;;4.00;;
10537;SDS011;5317;49.048;8.468;2023-11-21T13:19:05;5.10;;;3.97;;
10537;SDS011;5317;49.048;8.468;2023-11-21T13:21:33;3.83;;;3.37;;
10537;SDS011;5317;49.048;8.468;2023-11-21T13:24:00;4.30;;;3.90;;
10537;SDS011;5317;49.048;8.468;2023-11-21T13:26:28;3.50;;;3.10;;
10537;SDS011;5317;49.048;8.468;2023-11-21T13:28:56;3.67;;;3.27;;
10537;SDS011;5317;49.048;8.468;2023-11-21T13:31:24;3.60;;;3.30;;
10537;SDS011;5317;49.048;8.468;2023-11-21T13:33:56;4.63;;;3.07;;
10537;SDS011;5317;49.048;8.468;2023-11-21T13:36:31;3.60;;;2.70;;
10537;SDS011;5317;49.048;8.468;2023-11-21T13:39:00;3.80;;;2.70;;
10537;SDS011;5317;49.048;8.468;2023-11-21T13:41:32;4.50;;;3.80;;
10537;SDS011;5317;49.048;8.468;2023-11-21T13:43:59;3.50;;;2.80;;
10537;SDS011;5317;49.048;8.468;2023-11-21T13:46:39;2.40;;;2.20;;
10537;SDS011;5317;49.048;8.468;2023-11-21T13:49:06;3.50;;;3.20;;
10537;SDS011;5317;49.048;8.468;2023-11-21T13:51:36;4.73;;;3.10;;
10537;SDS011;5317;49.048;8.468;2023-11-21T13:54:06;2.90;;;2.70;;
10537;SDS011;5317;49.048;8.468;2023-11-21T13:56:35;2.80;;;2.60;;
10537;SDS011;5317;49.048;8.468;2023-11-21T13:59:02;4.83;;;2.60;;
10537;SDS011;5317;49.048;8.468;2023-11-21T14:01:38;4.17;;;2.77;;
10537;SDS011;5317;49.048;8.468;2023-11-21T14:04:19;2.50;;;2.30;;
10537;SDS011;5317;49.048;8.468;2023-11-21T14:07:02;3.73;;;3.03;;
10537;SDS011;5317;49.048;8.468;2023-11-21T14:09:45;3.33;;;3.03;;
10537;SDS011;5317;49.048;8.468;2023-11-21T14:12:14;2.83;;;2.63;;
10537;SDS011;5317;49.048;8.468;2023-11-21T14:14:42;4.73;;;2.90;;
10537;SDS011;5317;49.048;8.468;2023-11-21T14:17:10;2.80;;;2.50;;
10537;SDS011;5317;49.048;8.468;2023-11-21T14:19:38;2.60;;;2.40;;
10537;SDS011;5317;49.048;8.468;2023-11-21T14:22:09;2.50;;;2.13;;
10537;SDS011;5317;49.048;8.468;2023-11-21T14:24:36;3.07;;;2.50;;
10537;SDS011;5317;49.048;8.468;2023-11-21T14:27:08;2.50;;;2.30;;
10537;SDS011;5317;49.048;8.468;2023-11-21T14:29:35;2.40;;;2.20;;
10537;SDS011;5317;49.048;8.468;2023-11-21T14:32:05;2.40;;;2.20;;
10537;SDS011;5317;49.048;8.468;2023-11-21T14:34:33;2.53;;;2.33;;
10537;SDS011;5317;49.048;8.468;2023-11-21T14:37:00;2.50;;;2.30;;
10537;SDS011;5317;49.048;8.468;2023-11-21T14:39:29;2.33;;;2.10;;
10537;SDS011;5317;49.048;8.468;2023-11-21T14:42:00;3.90;;;2.70;;
10537;SDS011;5317;49.048;8.468;2023-11-21T14:44:28;3.93;;;2.40;;
10537;SDS011;5317;49.048;8.468;2023-11-21T14:47:00;3.27;;;2.47;;
10537;SDS011;5317;49.048;8.468;2023-11-21T14:49:32;3.57;;;2.57;;
10537;SDS011;5317;49.048;8.468;2023-11-21T14:52:13;2.73;;;2.37;;
10537;SDS011;5317;49.048;8.468;2023-11-21T14:54:57;3.73;;;2.60;;
10537;SDS011;5317;49.048;8.468;2023-11-21T14:57:46;2.57;;;2.37;;
10537;SDS011;5317;49.048;8.468;2023-11-21T15:00:15;4.83;;;2.77;;
10537;SDS011;5317;49.048;8.468;2023-11-21T15:03:10;2.60;;;2.40;;
10537;SDS011;5317;49.048;8.468;2023-11-21T15:05:49;2.83;;;1.97;;
10537;SDS011;5317;49.048;8.468;2023-11-21T15:08:15;2.30;;;2.00;;
10537;SDS011;5317;49.048;8.468;2023-11-21T15:10:47;2.60;;;2.20;;
10537;SDS011;5317;49.048;8.468;2023-11-21T15:13:19;3.50;;;2.30;;